sensor_id;sensor_type;location;lat;lon;timestamp;pressure;altitude;pressure_sealevel;temperature;humidity
70015;BME280;57358;51.094;6.760;2024-01-11T00:04:44;102446.2;;;-5.64;100
70015;BME280;57358;51.094;6.760;2024-01-11T00:09:44;102437.1;;;-5.78;100
70015;BME280;57358;51.094;6.760;2024-01-11T00:14:44;102447.4;;;-5.76;100
70015;BME280;57358;51.094;6.760;2024-01-11T00:19:44;102448.49999999999;;;-5.79;100
70015;BME280;57358;51.094;6.760;2024-01-11T00:24:44;102434.20000000001;;;-5.9;100
70015;BME280;57358;51.094;6.760;2024-01-11T00:29:44;102453.2;;;-5.79;100
70015;BME280;57358;51.094;6.760;2024-01-11T00:34:44;102456.40000000001;;;-5.81;100
70015;BME280;57358;51.094;6.760;2024-01-11T00:39:44;102470;;;-5.79;100
70015;BME280;57358;51.094;6.760;2024-01-11T00:44:44;102471.8;;;-5.85;100
70015;BME280;57358;51.094;6.760;2024-01-11T00:49:44;102466.79999999999;;;-5.94;100
70015;BME280;57358;51.094;6.760;2024-01-11T00:54:44;102448.70000000001;;;-6.07;100
70015;BME280;57358;51.094;6.760;2024-01-11T00:59:44;102455.40000000001;;;-6.04;100
70015;BME280;57358;51.094;6.760;2024-01-11T01:04:44;102449.2;;;-6.1;100
70015;BME280;57358;51.094;6.760;2024-01-11T01:09:44;102452.70000000001;;;-6.15;100
70015;BME280;57358;51.094;6.760;2024-01-11T01:14:44;102453.9;;;-6.17;100
70015;BME280;57358;51.094;6.760;2024-01-11T01:19:44;102459.5;;;-6.19;100
70015;BME280;57358;51.094;6.760;2024-01-11T01:24:44;102464.7;;;-6.22;100
70015;BME280;57358;51.094;6.760;2024-01-11T01:29:44;102461.7;;;-6.29;100
70015;BME280;57358;51.094;6.760;2024-01-11T01:34:44;102456.19999999998;;;-6.33;100
70015;BME280;57358;51.094;6.760;2024-01-11T01:39:44;102447.70000000001;;;-6.42;100
70015;BME280;57358;51.094;6.760;2024-01-11T01:44:44;102464.79999999999;;;-6.36;100
70015;BME280;57358;51.094;6.760;2024-01-11T01:49:44;102472.49999999999;;;-6.34;100
70015;BME280;57358;51.094;6.760;2024-01-11T01:54:44;102461.99999999999;;;-6.45;100
70015;BME280;57358;51.094;6.760;2024-01-11T01:59:44;102482.09999999999;;;-6.39;100
70015;BME280;57358;51.094;6.760;2024-01-11T02:04:44;102490.1;;;-6.39;100
70015;BME280;57358;51.094;6.760;2024-01-11T02:09:44;102486.40000000001;;;-6.39;100
70015;BME280;57358;51.094;6.760;2024-01-11T02:14:44;102484.9;;;-6.42;100
70015;BME280;57358;51.094;6.760;2024-01-11T02:19:44;102475.50000000001;;;-6.44;100
70015;BME280;57358;51.094;6.760;2024-01-11T02:24:44;102455.5;;;-6.57;100
70015;BME280;57358;51.094;6.760;2024-01-11T02:29:44;102466.2;;;-6.44;100
70015;BME280;57358;51.094;6.760;2024-01-11T02:34:44;102467.59999999999;;;-6.4;100
70015;BME280;57358;51.094;6.760;2024-01-11T02:39:44;102456.40000000001;;;-6.43;100
70015;BME280;57358;51.094;6.760;2024-01-11T02:44:44;102459.40000000001;;;-6.37;100
70015;BME280;57358;51.094;6.760;2024-01-11T02:49:44;102475.50000000001;;;-6.28;100
70015;BME280;57358;51.094;6.760;2024-01-11T02:54:44;102467.80000000002;;;-6.39;100
70015;BME280;57358;51.094;6.760;2024-01-11T02:59:44;102478.50000000001;;;-6.38;100
70015;BME280;57358;51.094;6.760;2024-01-11T03:04:44;102470.90000000001;;;-6.47;100
70015;BME280;57358;51.094;6.760;2024-01-11T03:09:44;102464.3;;;-6.53;100
70015;BME280;57358;51.094;6.760;2024-01-11T03:14:44;102443.69999999998;;;-6.58;100
70015;BME280;57358;51.094;6.760;2024-01-11T03:19:44;102443.1;;;-6.64;100
70015;BME280;57358;51.094;6.760;2024-01-11T03:24:44;102444.2;;;-6.64;100
70015;BME280;57358;51.094;6.760;2024-01-11T03:29:44;102445.8;;;-6.64;100
70015;BME280;57358;51.094;6.760;2024-01-11T03:34:44;102449.90000000001;;;-6.61;100
70015;BME280;57358;51.094;6.760;2024-01-11T03:39:44;102447.8;;;-6.56;100
70015;BME280;57358;51.094;6.760;2024-01-11T03:44:44;102457.19999999998;;;-6.62;100
70015;BME280;57358;51.094;6.760;2024-01-11T03:49:44;102453.40000000001;;;-6.58;100
70015;BME280;57358;51.094;6.760;2024-01-11T03:54:44;102452;;;-6.6;100
70015;BME280;57358;51.094;6.760;2024-01-11T03:59:44;102453.9;;;-6.63;100
70015;BME280;57358;51.094;6.760;2024-01-11T04:04:44;102453;;;-6.65;100
70015;BME280;57358;51.094;6.760;2024-01-11T04:09:44;102465.00000000001;;;-6.67;100
70015;BME280;57358;51.094;6.760;2024-01-11T04:14:44;102460.5;;;-6.71;100
70015;BME280;57358;51.094;6.760;2024-01-11T04:19:44;102460.40000000001;;;-6.76;100
70015;BME280;57358;51.094;6.760;2024-01-11T04:24:44;102446.8;;;-6.9;100
70015;BME280;57358;51.094;6.760;2024-01-11T04:29:44;102464.9;;;-6.85;100
70015;BME280;57358;51.094;6.760;2024-01-11T04:34:44;102464.9;;;-6.89;100
70015;BME280;57358;51.094;6.760;2024-01-11T04:39:44;102468.4;;;-6.87;100
70015;BME280;57358;51.094;6.760;2024-01-11T04:44:44;102490.3;;;-6.72;100
70015;BME280;57358;51.094;6.760;2024-01-11T04:49:44;102476;;;-6.77;100
70015;BME280;57358;51.094;6.760;2024-01-11T04:54:44;102473.90000000001;;;-6.86;100
70015;BME280;57358;51.094;6.760;2024-01-11T04:59:44;102470.90000000001;;;-6.89;100
70015;BME280;57358;51.094;6.760;2024-01-11T05:04:44;102473.2;;;-6.95;100
70015;BME280;57358;51.094;6.760;2024-01-11T05:09:44;102471.90000000001;;;-6.99;100
70015;BME280;57358;51.094;6.760;2024-01-11T05:14:44;102467.4;;;-7.03;100
70015;BME280;57358;51.094;6.760;2024-01-11T05:19:44;102465.90000000001;;;-7.06;100
70015;BME280;57358;51.094;6.760;2024-01-11T05:24:44;102461.3;;;-7.08;100
70015;BME280;57358;51.094;6.760;2024-01-11T05:29:44;102462.5;;;-7.16;100
70015;BME280;57358;51.094;6.760;2024-01-11T05:34:44;102467.7;;;-7.18;100
70015;BME280;57358;51.094;6.760;2024-01-11T05:39:44;102464.1;;;-7.21;100
70015;BME280;57358;51.094;6.760;2024-01-11T05:44:44;102474.29999999999;;;-7.25;100
70015;BME280;57358;51.094;6.760;2024-01-11T05:49:44;102468;;;-7.25;100
70015;BME280;57358;51.094;6.760;2024-01-11T05:54:44;102467.2;;;-7.23;100
70015;BME280;57358;51.094;6.760;2024-01-11T05:59:44;102452.8;;;-7.34;100
70015;BME280;57358;51.094;6.760;2024-01-11T06:04:44;102476.6;;;-7.24;100
70015;BME280;57358;51.094;6.760;2024-01-11T06:09:44;102483.8;;;-7.27;100
70015;BME280;57358;51.094;6.760;2024-01-11T06:14:44;102481.9;;;-7.21;100
70015;BME280;57358;51.094;6.760;2024-01-11T06:19:44;102511.99999999999;;;-7.08;100
70015;BME280;57358;51.094;6.760;2024-01-11T06:24:44;102488.7;;;-7.16;100
70015;BME280;57358;51.094;6.760;2024-01-11T06:29:44;102481.9;;;-7.24;100
70015;BME280;57358;51.094;6.760;2024-01-11T06:34:44;102489.5;;;-7.35;100
70015;BME280;57358;51.094;6.760;2024-01-11T06:39:44;102489.5;;;-7.46;100
70015;BME280;57358;51.094;6.760;2024-01-11T06:44:44;102460.5;;;-7.58;100
70015;BME280;57358;51.094;6.760;2024-01-11T06:49:44;102480.5;;;-7.52;100
70015;BME280;57358;51.094;6.760;2024-01-11T06:54:44;102482.40000000001;;;-7.54;100
70015;BME280;57358;51.094;6.760;2024-01-11T06:59:44;102487.40000000001;;;-7.51;100
70015;BME280;57358;51.094;6.760;2024-01-11T07:04:44;102493.59999999999;;;-7.46;100
70015;BME280;57358;51.094;6.760;2024-01-11T07:09:44;102481.19999999998;;;-7.5;100
70015;BME280;57358;51.094;6.760;2024-01-11T07:14:44;102470.70000000001;;;-7.66;100
70015;BME280;57358;51.094;6.760;2024-01-11T07:19:44;102485.7;;;-7.63;100
70015;BME280;57358;51.094;6.760;2024-01-11T07:24:44;102487.40000000001;;;-7.66;100
70015;BME280;57358;51.094;6.760;2024-01-11T07:29:44;102497.8;;;-7.7;100
70015;BME280;57358;51.094;6.760;2024-01-11T07:34:44;102528.29999999999;;;-7.54;100
70015;BME280;57358;51.094;6.760;2024-01-11T07:39:44;102548;;;-7.39;100
70015;BME280;57358;51.094;6.760;2024-01-11T07:44:44;102537.5;;;-7.41;100
70015;BME280;57358;51.094;6.760;2024-01-11T07:49:44;102556.40000000001;;;-7.33;100
70015;BME280;57358;51.094;6.760;2024-01-11T07:54:44;102562.5;;;-7.38;100
70015;BME280;57358;51.094;6.760;2024-01-11T07:59:44;102547.70000000001;;;-7.44;100
70015;BME280;57358;51.094;6.760;2024-01-11T08:04:44;102559.79999999999;;;-7.33;100
70015;BME280;57358;51.094;6.760;2024-01-11T08:09:44;102569.5;;;-7.26;100
70015;BME280;57358;51.094;6.760;2024-01-11T08:14:44;102511.20000000001;;;-7.53;100
70015;BME280;57358;51.094;6.760;2024-01-11T08:19:44;102580.09999999999;;;-7.09;100
70015;BME280;57358;51.094;6.760;2024-01-11T08:24:44;102561.79999999999;;;-6.96;100
70015;BME280;57358;51.094;6.760;2024-01-11T08:29:44;102559.6;;;-6.88;100
70015;BME280;57358;51.094;6.760;2024-01-11T08:34:44;102582.19999999998;;;-6.71;100
70015;BME280;57358;51.094;6.760;2024-01-11T08:39:44;102590.90000000001;;;-6.6;100
70015;BME280;57358;51.094;6.760;2024-01-11T08:44:44;102589.00000000001;;;-6.53;100
70015;BME280;57358;51.094;6.760;2024-01-11T08:49:44;102609.3;;;-6.27;100
70015;BME280;57358;51.094;6.760;2024-01-11T08:54:44;102621.2;;;-6.06;100
70015;BME280;57358;51.094;6.760;2024-01-11T08:59:44;102634.6;;;-5.84;100
70015;BME280;57358;51.094;6.760;2024-01-11T09:04:44;102632.19999999998;;;-5.59;100
70015;BME280;57358;51.094;6.760;2024-01-11T09:09:44;102642.7;;;-5.39;100
70015;BME280;57358;51.094;6.760;2024-01-11T09:14:44;102645.2;;;-5.18;100
70015;BME280;57358;51.094;6.760;2024-01-11T09:19:44;102633.8;;;-4.97;100
70015;BME280;57358;51.094;6.760;2024-01-11T09:24:44;102627;;;-4.79;100
70015;BME280;57358;51.094;6.760;2024-01-11T09:29:44;102603.9;;;-4.66;100
70015;BME280;57358;51.094;6.760;2024-01-11T09:34:44;102599.2;;;-4.41;100
70015;BME280;57358;51.094;6.760;2024-01-11T09:39:44;102593.90000000001;;;-4.22;100
70015;BME280;57358;51.094;6.760;2024-01-11T09:44:44;102565.20000000001;;;-4.07;100
70015;BME280;57358;51.094;6.760;2024-01-11T09:49:44;102564.79999999999;;;-3.85;100
70015;BME280;57358;51.094;6.760;2024-01-11T09:54:44;102539.00000000001;;;-3.63;100
70015;BME280;57358;51.094;6.760;2024-01-11T09:59:44;102511.7;;;-3.49;100
70015;BME280;57358;51.094;6.760;2024-01-11T10:04:44;102473.29999999999;;;-3.36;100
70015;BME280;57358;51.094;6.760;2024-01-11T10:09:44;102444.8;;;-3.13;100
70015;BME280;57358;51.094;6.760;2024-01-11T10:14:44;102410.79999999999;;;-2.96;100
70015;BME280;57358;51.094;6.760;2024-01-11T10:19:44;102400;;;-2.67;100
70015;BME280;57358;51.094;6.760;2024-01-11T10:24:44;102335.1;;;-2.57;100
70015;BME280;57358;51.094;6.760;2024-01-11T10:29:44;102277.3;;;-2.44;100
70015;BME280;57358;51.094;6.760;2024-01-11T10:34:44;102245.3;;;-2.29;100
70015;BME280;57358;51.094;6.760;2024-01-11T10:39:44;102181.4;;;-2.19;100
70015;BME280;57358;51.094;6.760;2024-01-11T10:44:44;102175.5;;;-1.92;100
70015;BME280;57358;51.094;6.760;2024-01-11T10:49:44;102141.7;;;-1.87;100
70015;BME280;57358;51.094;6.760;2024-01-11T10:54:44;102140.4;;;-1.78;100
70015;BME280;57358;51.094;6.760;2024-01-11T10:59:44;102089.4;;;-1.96;100
70015;BME280;57358;51.094;6.760;2024-01-11T11:04:44;102153.09999999999;;;-1.33;100
70015;BME280;57358;51.094;6.760;2024-01-11T11:09:44;102085.40000000001;;;-1.21;100
70015;BME280;57358;51.094;6.760;2024-01-11T11:14:44;102123;;;-0.95;100
70015;BME280;57358;51.094;6.760;2024-01-11T11:19:44;102112;;;-0.67;100
70015;BME280;57358;51.094;6.760;2024-01-11T11:24:44;102046.7;;;-0.57;100
70015;BME280;57358;51.094;6.760;2024-01-11T11:29:46;102031.3;;;-0.15;100
70015;BME280;57358;51.094;6.760;2024-01-11T11:34:44;101960.7;;;0.15;100
70015;BME280;57358;51.094;6.760;2024-01-11T11:39:44;101864.70000000001;;;0.28;98.2
70015;BME280;57358;51.094;6.760;2024-01-11T11:44:48;101719.5;;;0.01;94.91
70015;BME280;57358;51.094;6.760;2024-01-11T11:50:16;101740.3;;;0.47;92.83
70015;BME280;57358;51.094;6.760;2024-01-11T11:54:44;101737.90000000001;;;0.67;91.79
70015;BME280;57358;51.094;6.760;2024-01-11T11:59:44;101656.7;;;0.93;88.81
70015;BME280;57358;51.094;6.760;2024-01-11T12:04:46;101630.6;;;1.21;87.16
70015;BME280;57358;51.094;6.760;2024-01-11T12:09:44;101556;;;1.17;85.55
70015;BME280;57358;51.094;6.760;2024-01-11T12:14:44;101502.20000000001;;;1.31;83.92
70015;BME280;57358;51.094;6.760;2024-01-11T12:19:44;101446.90000000001;;;1.52;82.07
70015;BME280;57358;51.094;6.760;2024-01-11T12:24:45;101305;;;1.56;79.65
70015;BME280;57358;51.094;6.760;2024-01-11T12:29:44;101247.40000000001;;;1.58;78.34
70015;BME280;57358;51.094;6.760;2024-01-11T12:34:44;101233.8;;;1.64;77.76
70015;BME280;57358;51.094;6.760;2024-01-11T12:39:44;101261.7;;;1.67;77.98
70015;BME280;57358;51.094;6.760;2024-01-11T12:44:44;101233.8;;;1.8;76.91
70015;BME280;57358;51.094;6.760;2024-01-11T12:49:44;101142.8;;;1.75;75.64
70015;BME280;57358;51.094;6.760;2024-01-11T12:54:44;101116.2;;;1.8;74.95
70015;BME280;57358;51.094;6.760;2024-01-11T12:59:44;101101;;;1.86;74.23
70015;BME280;57358;51.094;6.760;2024-01-11T13:04:44;101009.3;;;1.71;73.16
70015;BME280;57358;51.094;6.760;2024-01-11T13:09:44;100946.1;;;1.57;72.46
70015;BME280;57358;51.094;6.760;2024-01-11T13:14:44;101046.8;;;1.69;73.29
70015;BME280;57358;51.094;6.760;2024-01-11T13:19:44;101025;;;1.81;72.67
70015;BME280;57358;51.094;6.760;2024-01-11T13:24:44;100972.79999999999;;;1.93;71.51
70015;BME280;57358;51.094;6.760;2024-01-11T13:29:44;100972.40000000001;;;1.98;71.25
70015;BME280;57358;51.094;6.760;2024-01-11T13:34:44;100886.1;;;1.83;70.53
70015;BME280;57358;51.094;6.760;2024-01-11T13:39:44;100820.6;;;1.79;69.69
70015;BME280;57358;51.094;6.760;2024-01-11T13:44:44;100834.5;;;1.72;70.01
70015;BME280;57358;51.094;6.760;2024-01-11T13:49:44;100832.3;;;1.63;70.12
70015;BME280;57358;51.094;6.760;2024-01-11T13:54:44;100842.2;;;1.65;70.09
70015;BME280;57358;51.094;6.760;2024-01-11T13:59:44;100769;;;1.69;69
70015;BME280;57358;51.094;6.760;2024-01-11T14:04:44;100727.59999999999;;;1.6;68.67
70015;BME280;57358;51.094;6.760;2024-01-11T14:09:44;100762.90000000001;;;1.59;69.14
70015;BME280;57358;51.094;6.760;2024-01-11T14:14:44;100712.8;;;1.6;68.31
70015;BME280;57358;51.094;6.760;2024-01-11T14:19:44;100663.7;;;1.51;67.83
70015;BME280;57358;51.094;6.760;2024-01-11T14:24:44;100639.09999999999;;;1.52;67.43
70015;BME280;57358;51.094;6.760;2024-01-11T14:29:44;100639.4;;;1.48;67.41
70015;BME280;57358;51.094;6.760;2024-01-11T14:34:44;100620.7;;;1.33;67.43
70015;BME280;57358;51.094;6.760;2024-01-11T14:39:44;100877.4;;;1.37;67.63
70015;BME280;57358;51.094;6.760;2024-01-11T14:44:44;101095;;;1.26;68.02
70015;BME280;57358;51.094;6.760;2024-01-11T14:49:44;101145.3;;;1.08;67.96
70015;BME280;57358;51.094;6.760;2024-01-11T14:54:44;101264.5;;;1.16;68.44
70015;BME280;57358;51.094;6.760;2024-01-11T14:59:44;101380;;;1.06;69.45
70015;BME280;57358;51.094;6.760;2024-01-11T15:04:44;101461.40000000001;;;0.83;70.58
70015;BME280;57358;51.094;6.760;2024-01-11T15:09:44;101556.8;;;0.79;71.56
70015;BME280;57358;51.094;6.760;2024-01-11T15:14:44;101637.5;;;0.71;72.76
70015;BME280;57358;51.094;6.760;2024-01-11T15:19:44;101730.9;;;0.4;74.86
70015;BME280;57358;51.094;6.760;2024-01-11T15:24:44;101827.5;;;0.43;76.38
70015;BME280;57358;51.094;6.760;2024-01-11T15:29:44;101862.5;;;0.34;77.13
70015;BME280;57358;51.094;6.760;2024-01-11T15:34:44;101860.90000000001;;;0.1;77.76
70015;BME280;57358;51.094;6.760;2024-01-11T15:39:44;101918;;;0.03;78.64
70015;BME280;57358;51.094;6.760;2024-01-11T15:44:44;101943.6;;;-0.11;79.05
70015;BME280;57358;51.094;6.760;2024-01-11T15:49:44;101974.3;;;-0.28;79.79
70015;BME280;57358;51.094;6.760;2024-01-11T15:54:44;102011.90000000001;;;-0.31;80.16
70015;BME280;57358;51.094;6.760;2024-01-11T15:59:44;102046.1;;;-0.4;80.78
70015;BME280;57358;51.094;6.760;2024-01-11T16:04:44;102057.1;;;-0.54;81.14
70015;BME280;57358;51.094;6.760;2024-01-11T16:09:44;102076.3;;;-0.58;81.44
70015;BME280;57358;51.094;6.760;2024-01-11T16:14:44;102096.40000000001;;;-0.66;81.88
70015;BME280;57358;51.094;6.760;2024-01-11T16:19:44;102107;;;-0.81;82.44
70015;BME280;57358;51.094;6.760;2024-01-11T16:24:44;102144.8;;;-0.85;83.26
70015;BME280;57358;51.094;6.760;2024-01-11T16:29:45;102200.3;;;-0.85;84.5
70015;BME280;57358;51.094;6.760;2024-01-11T16:34:44;102220.3;;;-1.01;85.99
70015;BME280;57358;51.094;6.760;2024-01-11T16:39:44;102300.8;;;-0.97;88.22
70015;BME280;57358;51.094;6.760;2024-01-11T16:44:44;102321.3;;;-1.09;90.36
70015;BME280;57358;51.094;6.760;2024-01-11T16:49:44;102367.5;;;-1.09;92.51
70015;BME280;57358;51.094;6.760;2024-01-11T16:54:44;102414.7;;;-1.16;95.34
70015;BME280;57358;51.094;6.760;2024-01-11T16:59:44;102413.5;;;-1.28;97.38
70015;BME280;57358;51.094;6.760;2024-01-11T17:04:44;102431.19999999998;;;-1.44;99.81
70015;BME280;57358;51.094;6.760;2024-01-11T17:09:44;102504.2;;;-1.46;100
70015;BME280;57358;51.094;6.760;2024-01-11T17:14:44;102519;;;-1.54;100
70015;BME280;57358;51.094;6.760;2024-01-11T17:19:44;102542.7;;;-1.62;100
70015;BME280;57358;51.094;6.760;2024-01-11T17:24:44;102578.7;;;-1.57;100
70015;BME280;57358;51.094;6.760;2024-01-11T17:29:44;102581.40000000001;;;-1.66;100
70015;BME280;57358;51.094;6.760;2024-01-11T17:34:44;102590.90000000001;;;-1.73;100
70015;BME280;57358;51.094;6.760;2024-01-11T17:39:44;102600.6;;;-1.76;100
70015;BME280;57358;51.094;6.760;2024-01-11T17:44:44;102601.70000000001;;;-1.92;100
70015;BME280;57358;51.094;6.760;2024-01-11T17:49:44;102621.2;;;-1.96;100
70015;BME280;57358;51.094;6.760;2024-01-11T17:54:44;102636.5;;;-1.74;100
70015;BME280;57358;51.094;6.760;2024-01-11T17:59:44;102650.50000000001;;;-1.55;100
70015;BME280;57358;51.094;6.760;2024-01-11T18:04:44;102649.29999999999;;;-1.38;100
70015;BME280;57358;51.094;6.760;2024-01-11T18:09:44;102631.09999999999;;;-1.22;100
70015;BME280;57358;51.094;6.760;2024-01-11T18:14:44;102616.1;;;-1.09;100
70015;BME280;57358;51.094;6.760;2024-01-11T18:19:44;102598.49999999999;;;-1.01;100
70015;BME280;57358;51.094;6.760;2024-01-11T18:24:44;102571.3;;;-1;100
70015;BME280;57358;51.094;6.760;2024-01-11T18:29:44;102547.1;;;-0.93;100
70015;BME280;57358;51.094;6.760;2024-01-11T18:34:44;102534.7;;;-0.88;100
70015;BME280;57358;51.094;6.760;2024-01-11T18:39:44;102534.09999999999;;;-0.78;100
70015;BME280;57358;51.094;6.760;2024-01-11T18:44:44;102542.7;;;-0.74;100
70015;BME280;57358;51.094;6.760;2024-01-11T18:49:44;102555.5;;;-0.7;100
70015;BME280;57358;51.094;6.760;2024-01-11T18:54:44;102553.2;;;-0.7;100
70015;BME280;57358;51.094;6.760;2024-01-11T18:59:44;102570.2;;;-0.69;100
70015;BME280;57358;51.094;6.760;2024-01-11T19:04:44;102572.49999999999;;;-0.66;100
70015;BME280;57358;51.094;6.760;2024-01-11T19:09:44;102576.2;;;-0.66;100
70015;BME280;57358;51.094;6.760;2024-01-11T19:14:44;102604.6;;;-0.56;100
70015;BME280;57358;51.094;6.760;2024-01-11T19:19:44;102591.00000000001;;;-0.54;100
70015;BME280;57358;51.094;6.760;2024-01-11T19:24:44;102610.7;;;-0.43;100
70015;BME280;57358;51.094;6.760;2024-01-11T19:29:44;102620.90000000001;;;-0.37;100
70015;BME280;57358;51.094;6.760;2024-01-11T19:34:44;102600.6;;;-0.36;100
70015;BME280;57358;51.094;6.760;2024-01-11T19:39:44;102601.70000000001;;;-0.38;100
70015;BME280;57358;51.094;6.760;2024-01-11T19:44:44;102612.5;;;-0.37;100
70015;BME280;57358;51.094;6.760;2024-01-11T19:49:44;102603.29999999999;;;-0.35;100
70015;BME280;57358;51.094;6.760;2024-01-11T19:54:44;102605.7;;;-0.32;100
70015;BME280;57358;51.094;6.760;2024-01-11T19:59:44;102615.00000000001;;;-0.29;100
70015;BME280;57358;51.094;6.760;2024-01-11T20:04:44;102622.4;;;-0.29;100
70015;BME280;57358;51.094;6.760;2024-01-11T20:09:44;102628.50000000001;;;-0.28;100
70015;BME280;57358;51.094;6.760;2024-01-11T20:14:44;102621.2;;;-0.31;100
70015;BME280;57358;51.094;6.760;2024-01-11T20:19:44;102628.50000000001;;;-0.35;100
70015;BME280;57358;51.094;6.760;2024-01-11T20:24:44;102655.6;;;-0.37;100
70015;BME280;57358;51.094;6.760;2024-01-11T20:29:44;102682.19999999998;;;-0.36;100
70015;BME280;57358;51.094;6.760;2024-01-11T20:34:44;102690.3;;;-0.35;100
70015;BME280;57358;51.094;6.760;2024-01-11T20:39:44;102703.6;;;-0.33;100
70015;BME280;57358;51.094;6.760;2024-01-11T20:44:44;102701.70000000001;;;-0.3;100
70015;BME280;57358;51.094;6.760;2024-01-11T20:49:44;102710.7;;;-0.28;100
70015;BME280;57358;51.094;6.760;2024-01-11T20:54:44;102709.20000000001;;;-0.3;100
70015;BME280;57358;51.094;6.760;2024-01-11T20:59:44;102713.00000000001;;;-0.28;100
70015;BME280;57358;51.094;6.760;2024-01-11T21:04:44;102722.70000000001;;;-0.24;100
70015;BME280;57358;51.094;6.760;2024-01-11T21:09:44;102733.40000000001;;;-0.26;100
70015;BME280;57358;51.094;6.760;2024-01-11T21:14:44;102739.4;;;-0.23;100
70015;BME280;57358;51.094;6.760;2024-01-11T21:19:44;102733.20000000001;;;-0.22;100
70015;BME280;57358;51.094;6.760;2024-01-11T21:24:45;102734.3;;;-0.24;100
70015;BME280;57358;51.094;6.760;2024-01-11T21:29:44;102730.8;;;-0.24;100
70015;BME280;57358;51.094;6.760;2024-01-11T21:34:44;102716.00000000001;;;-0.25;100
70015;BME280;57358;51.094;6.760;2024-01-11T21:39:44;102707.40000000001;;;-0.33;100
70015;BME280;57358;51.094;6.760;2024-01-11T21:44:44;102720.4;;;-0.24;100
70015;BME280;57358;51.094;6.760;2024-01-11T21:49:44;102718;;;-0.27;100
70015;BME280;57358;51.094;6.760;2024-01-11T21:54:44;102724.1;;;-0.29;100
70015;BME280;57358;51.094;6.760;2024-01-11T21:59:44;102730.2;;;-0.28;100
70015;BME280;57358;51.094;6.760;2024-01-11T22:04:44;102729.9;;;-0.29;100
70015;BME280;57358;51.094;6.760;2024-01-11T22:09:44;102714.59999999999;;;-0.43;100
70015;BME280;57358;51.094;6.760;2024-01-11T22:14:44;102742.7;;;-0.34;100
70015;BME280;57358;51.094;6.760;2024-01-11T22:19:44;102752.29999999999;;;-0.3;100
70015;BME280;57358;51.094;6.760;2024-01-11T22:24:44;102749.2;;;-0.3;100
70015;BME280;57358;51.094;6.760;2024-01-11T22:29:44;102753.6;;;-0.28;100
70015;BME280;57358;51.094;6.760;2024-01-11T22:34:44;102756.8;;;-0.28;100
70015;BME280;57358;51.094;6.760;2024-01-11T22:39:44;102754;;;-0.24;100
70015;BME280;57358;51.094;6.760;2024-01-11T22:44:44;102747.4;;;-0.29;100
70015;BME280;57358;51.094;6.760;2024-01-11T22:49:44;102756.6;;;-0.18;100
70015;BME280;57358;51.094;6.760;2024-01-11T22:54:45;102749.1;;;-0.15;100
70015;BME280;57358;51.094;6.760;2024-01-11T22:59:44;102740.3;;;-0.17;100
70015;BME280;57358;51.094;6.760;2024-01-11T23:04:44;102732.8;;;-0.17;100
70015;BME280;57358;51.094;6.760;2024-01-11T23:09:44;102715.79999999999;;;-0.21;100
70015;BME280;57358;51.094;6.760;2024-01-11T23:14:44;102720.8;;;-0.22;100
70015;BME280;57358;51.094;6.760;2024-01-11T23:19:44;102706.40000000001;;;-0.2;100
70015;BME280;57358;51.094;6.760;2024-01-11T23:24:44;102718.90000000001;;;-0.17;100
70015;BME280;57358;51.094;6.760;2024-01-11T23:29:44;102719.69999999998;;;-0.17;100
70015;BME280;57358;51.094;6.760;2024-01-11T23:34:44;102733.3;;;-0.18;100
70015;BME280;57358;51.094;6.760;2024-01-11T23:39:44;102728.50000000001;;;-0.16;100
70015;BME280;57358;51.094;6.760;2024-01-11T23:44:44;102714.59999999999;;;-0.29;100
70015;BME280;57358;51.094;6.760;2024-01-11T23:49:44;102733.99999999999;;;-0.21;100
70015;BME280;57358;51.094;6.760;2024-01-11T23:54:44;102737.3;;;-0.18;100
70015;BME280;57358;51.094;6.760;2024-01-11T23:59:44;102742.90000000001;;;-0.1;100
